createdAt,value
2018-11-20T00:00:16.733Z,2.99
2018-11-20T00:05:17.440Z,2.99
2018-11-20T00:10:16.498Z,2.99
2018-11-20T00:15:17.079Z,2.99
2018-11-20T00:20:16.383Z,2.99
2018-11-20T00:25:16.854Z,2.99
2018-11-20T00:30:17.102Z,2.99
2018-11-20T00:35:16.352Z,2.99
2018-11-20T00:40:16.814Z,2.99
2018-11-20T00:45:16.490Z,2.99
2018-11-20T00:50:16.828Z,2.99
2018-11-20T00:55:16.257Z,1.97
2018-11-20T01:00:16.472Z,1.97
2018-11-20T01:05:16.765Z,1.97
2018-11-20T01:10:16.240Z,1.97
2018-11-20T01:15:16.801Z,1.97
2018-11-20T01:20:16.291Z,2.16
2018-11-20T01:25:16.569Z,2.03
2018-11-20T01:30:16.798Z,2.24
2018-11-20T01:35:17.067Z,2.24
2018-11-20T01:40:16.553Z,2.23
2018-11-20T01:45:16.199Z,2.19
2018-11-20T01:50:16.421Z,2.23
2018-11-20T01:55:17.321Z,2.23
2018-11-20T02:00:16.116Z,2.24
2018-11-20T02:05:16.404Z,2.29
2018-11-20T02:10:16.851Z,2.29
2018-11-20T02:15:16.420Z,2.26
2018-11-20T02:20:16.693Z,2.26
2018-11-20T02:25:16.183Z,2.29
2018-11-20T02:30:16.376Z,2.19
2018-11-20T02:35:16.659Z,2.29
2018-11-20T02:40:17.132Z,2.29
2018-11-20T02:45:16.787Z,2.29
2018-11-20T02:50:17.018Z,2.29
2018-11-20T02:55:16.520Z,2.29
2018-11-20T03:00:16.771Z,2.29
2018-11-20T03:05:17.019Z,2.29
2018-11-20T03:10:16.495Z,2.29
2018-11-20T03:15:16.048Z,2.49
2018-11-20T03:20:16.352Z,2.49
2018-11-20T03:25:16.836Z,2.49
2018-11-20T03:30:17.045Z,2.49
2018-11-20T03:35:16.360Z,2.59
2018-11-20T03:40:16.805Z,2.59
2018-11-20T03:45:16.393Z,2.59
2018-11-20T03:50:16.661Z,2.69
2018-11-20T03:55:16.205Z,2.69
2018-11-20T04:00:16.424Z,2.59
2018-11-20T04:05:16.678Z,2.69
2018-11-20T04:10:17.091Z,2.59
2018-11-20T04:15:16.703Z,2.59
2018-11-20T04:20:17.007Z,2.59
2018-11-20T04:25:16.893Z,2.59
2018-11-20T04:30:17.711Z,2.69
2018-11-20T04:35:16.973Z,2.69
2018-11-20T04:40:16.411Z,2.69
2018-11-20T04:45:17.028Z,2.69
2018-11-20T04:50:16.312Z,2.69
2018-11-20T04:55:16.808Z,2.69
2018-11-20T05:00:17.032Z,2.69
2018-11-20T05:05:16.319Z,2.79
2018-11-20T05:10:16.782Z,2.69
2018-11-20T05:15:16.386Z,2.69
2018-11-20T05:20:16.703Z,2.69
2018-11-20T05:25:16.148Z,2.79
2018-11-20T05:30:16.370Z,2.79
2018-11-20T05:35:16.645Z,2.79
2018-11-20T05:40:17.371Z,2.79
2018-11-20T05:45:16.745Z,2.79
2018-11-20T05:50:16.989Z,2.79
2018-11-20T05:55:16.519Z,2.79
2018-11-20T06:00:16.713Z,2.79
2018-11-20T06:05:17.010Z,2.79
2018-11-20T06:10:16.447Z,2.79
2018-11-20T06:15:16.054Z,2.79
2018-11-20T06:20:16.320Z,2.79
2018-11-20T06:25:33.693Z,2.79
2018-11-20T06:30:17.021Z,2.79
2018-11-20T06:35:16.281Z,2.79
2018-11-20T06:40:16.786Z,2.79
2018-11-20T06:45:16.360Z,2.89
2018-11-20T06:50:16.686Z,2.87
2018-11-20T06:55:16.186Z,2.87
2018-11-20T07:00:16.423Z,2.87
2018-11-20T07:05:16.705Z,2.87
2018-11-20T07:10:16.170Z,2.87
2018-11-20T07:15:17.205Z,2.79
2018-11-20T07:20:16.041Z,2.89
2018-11-20T07:25:16.520Z,2.89
2018-11-20T07:30:17.275Z,2.79
2018-11-20T07:35:17.004Z,2.79
2018-11-20T07:40:16.478Z,2.79
2018-11-20T07:45:16.111Z,2.89
2018-11-20T07:50:16.363Z,2.89
2018-11-20T07:55:17.189Z,2.89
2018-11-20T08:00:16.057Z,2.89
2018-11-20T08:05:16.373Z,2.89
2018-11-20T08:10:17.033Z,2.89
2018-11-20T08:15:16.548Z,2.89
2018-11-20T08:20:16.734Z,2.89
2018-11-20T08:25:16.426Z,2.89
2018-11-20T08:30:16.454Z,2.89
2018-11-20T08:35:17.164Z,2.89
2018-11-20T08:40:16.190Z,2.89
2018-11-20T08:45:17.153Z,2.89
2018-11-20T08:50:16.077Z,2.89
2018-11-20T08:55:16.593Z,2.99
2018-11-20T09:00:16.802Z,2.99
2018-11-20T09:05:16.084Z,2.99
2018-11-20T09:10:17.376Z,2.99
2018-11-20T09:15:16.163Z,2.99
2018-11-20T09:20:17.412Z,2.99
2018-11-20T09:25:16.897Z,2.99
2018-11-20T09:30:16.097Z,2.99
2018-11-20T09:35:17.119Z,2.99
2018-11-20T09:40:16.862Z,2.99
2018-11-20T09:45:16.473Z,2.99
2018-11-20T09:50:16.765Z,2.99
2018-11-20T09:55:16.214Z,2.99
2018-11-20T10:00:16.468Z,2.99
2018-11-20T10:05:17.156Z,2.99
2018-11-20T10:10:16.196Z,2.99
2018-11-20T10:15:17.408Z,2.99
2018-11-20T10:20:16.067Z,2.99
2018-11-20T10:25:16.873Z,2.99
2018-11-20T10:30:16.765Z,2.99
2018-11-20T10:35:16.027Z,2.99
2018-11-20T10:40:16.660Z,2.99
2018-11-20T10:45:16.259Z,2.99
2018-11-20T10:50:16.460Z,2.99
2018-11-20T10:55:16.924Z,2.99
2018-11-20T11:00:16.575Z,2.99
2018-11-20T11:05:16.479Z,2.99
2018-11-20T11:10:16.940Z,2.99
2018-11-20T11:15:16.528Z,2.99
2018-11-20T11:20:17.063Z,2.99
2018-11-20T11:25:16.266Z,2.99
2018-11-20T11:30:16.483Z,2.99
2018-11-20T11:35:16.814Z,2.99
2018-11-20T11:40:16.229Z,2.99
2018-11-20T11:45:16.835Z,2.99
2018-11-20T11:50:16.140Z,2.99
2018-11-20T11:55:16.678Z,2.99
2018-11-20T12:00:16.841Z,2.99
2018-11-20T22:40:16.482Z,1.39
2018-11-20T22:45:16.697Z,1.39
2018-11-20T22:50:16.370Z,1.39
2018-11-20T22:55:16.875Z,1.39
2018-11-20T23:00:16.055Z,1.39
2018-11-20T23:05:16.359Z,1.79
2018-11-20T23:10:16.859Z,1.69
2018-11-20T23:15:16.447Z,1.69
2018-11-20T23:20:16.691Z,1.69
2018-11-20T23:25:16.215Z,1.69
2018-11-20T23:30:16.407Z,1.19
2018-11-20T23:35:16.692Z,1.19
2018-11-20T23:40:16.172Z,1.19
2018-11-20T23:45:16.732Z,1.19
2018-11-20T23:50:16.051Z,0.89
2018-11-20T23:55:16.597Z,1.09
